Time;durP1;ratioP1;P1;durP2;ratioP2;P2;SDS_P1;SDS_P2;PMS_P1;PMS_P2;Temp;Humidity;BMP_temperature;BMP_pressure;BME280_temperature;BME280_humidity;BME280_pressure;Samples;Min_cycle;Max_cycle;Signal;HPM_P1;HPM_P2
2022/05/24 00:01:13;;;;;;;1.25;0.40;;;;;;;26.59;44.16;99083.66;5059821;28;20123;-85
2022/05/24 00:03:39;;;;;;;1.33;0.50;;;;;;;26.58;44.12;99084.66;5058293;28;20048;-84
2022/05/24 00:06:05;;;;;;;1.13;0.60;;;;;;;26.58;44.20;99084.66;5058078;28;20031;-85
2022/05/24 00:08:31;;;;;;;0.90;0.50;;;;;;;26.57;44.12;99083.78;5075329;28;20036;-84
2022/05/24 00:10:56;;;;;;;1.92;0.90;;;;;;;26.56;43.89;99084.78;5057893;28;20021;-84
2022/05/24 00:13:22;;;;;;;1.35;0.57;;;;;;;26.56;43.95;99075.91;5075453;28;20028;-84
2022/05/24 00:15:48;;;;;;;0.93;0.40;;;;;;;26.56;44.01;99081.25;5057370;28;20154;-84
2022/05/24 00:18:17;;;;;;;1.90;0.60;;;;;;;26.52;44.28;99084.22;5056382;28;20032;-84
2022/05/24 00:20:51;;;;;;;1.20;0.40;;;;;;;26.52;44.28;99081.53;5057002;28;20025;-84
2022/05/24 00:23:18;;;;;;;1.15;0.40;;;;;;;26.53;44.11;99085.91;5056827;28;20464;-85
2022/05/24 00:25:47;;;;;;;1.33;0.60;;;;;;;26.50;44.24;99091.56;5056976;28;20039;-85
2022/05/24 00:28:35;;;;;;;2.25;0.70;;;;;;;26.50;44.11;99085.34;5058290;28;20086;-85
2022/05/24 00:31:02;;;;;;;1.00;0.32;;;;;;;26.50;44.42;99088.03;5057472;28;20017;-83
2022/05/24 00:33:28;;;;;;;1.35;0.45;;;;;;;26.49;44.19;99084.47;5075204;28;20102;-84
2022/05/24 00:35:54;;;;;;;0.88;0.40;;;;;;;26.49;44.28;99087.16;5057502;28;20457;-83
2022/05/24 00:38:26;;;;;;;1.48;0.55;;;;;;;26.47;44.28;99089.13;5057026;28;20020;-85
2022/05/24 00:41:27;;;;;;;2.10;0.50;;;;;;;26.45;44.40;99080.41;5056764;28;20048;-85
2022/05/24 00:43:55;;;;;;;1.55;0.47;;;;;;;26.44;44.45;99078.69;5051370;28;20044;-84
2022/05/24 00:46:27;;;;;;;1.27;0.60;;;;;;;26.41;44.45;99089.69;5074570;28;20349;-84
2022/05/24 00:49:07;;;;;;;0.52;0.30;;;;;;;26.44;44.20;99084.06;5056941;28;20107;-83
2022/05/24 00:51:53;;;;;;;1.88;0.50;;;;;;;26.42;44.10;99086.03;5056620;28;20469;-85
2022/05/24 00:54:18;;;;;;;1.55;0.40;;;;;;;26.44;44.36;99084.06;5056542;28;20020;-84
2022/05/24 00:57:04;;;;;;;1.85;0.40;;;;;;;26.42;44.20;99080.69;5056760;28;20125;-84
2022/05/24 00:59:40;;;;;;;1.10;0.35;;;;;;;26.40;44.39;99083.50;5081849;28;20005;-85
2022/05/24 01:02:05;;;;;;;1.23;0.60;;;;;;;26.40;44.26;99080.81;5056871;28;20120;-85
2022/05/24 01:04:31;;;;;;;0.85;0.50;;;;;;;26.39;44.32;99081.81;5036587;28;20061;-85
2022/05/24 01:06:57;;;;;;;1.33;0.40;;;;;;;26.36;44.31;99075.88;5056187;28;20067;-85
2022/05/24 01:09:44;;;;;;;1.40;0.60;;;;;;;26.37;44.31;99093.63;5054107;28;20057;-85
2022/05/24 01:12:19;;;;;;;1.40;0.60;;;;;;;26.38;44.12;99100.66;5054067;28;20051;-86
2022/05/24 01:14:45;;;;;;;2.13;0.82;;;;;;;26.37;44.24;99099.81;5036353;28;20490;-85
2022/05/24 01:17:10;;;;;;;2.03;0.50;;;;;;;26.36;44.21;99097.28;5036504;28;20028;-85
2022/05/24 01:19:43;;;;;;;1.27;0.40;;;;;;;26.35;44.24;99095.59;5053078;28;20132;-85
2022/05/24 01:22:43;;;;;;;1.38;0.52;;;;;;;26.33;44.41;99086.88;5039173;28;20516;-84
2022/05/24 01:25:29;;;;;;;1.63;0.60;;;;;;;26.34;44.47;99088.56;5040779;28;20029;-83
2022/05/24 01:27:55;;;;;;;1.87;0.53;;;;;;;26.30;44.35;99088.00;5039381;28;20094;-86
2022/05/24 01:30:21;;;;;;;0.85;0.40;;;;;;;26.30;44.44;99087.13;5041189;28;20361;-84
2022/05/24 01:41:41;;;;;;;1.13;0.47;;;;;;;26.27;44.38;99078.41;5058173;28;20039;-85
2022/05/24 01:44:08;;;;;;;1.08;0.50;;;;;;;26.30;44.20;99073.75;5060039;28;20116;-86
2022/05/24 01:46:37;;;;;;;0.98;0.35;;;;;;;26.27;44.34;99067.72;5041766;28;20064;-84
2022/05/24 01:49:12;;;;;;;1.20;0.50;;;;;;;26.25;44.65;99075.00;5041378;28;20127;-85
2022/05/24 01:51:54;;;;;;;0.73;0.40;;;;;;;26.24;44.30;99073.34;5041414;28;20040;-84
2022/05/24 01:54:21;;;;;;;2.33;0.63;;;;;;;26.23;44.51;99077.00;5041784;28;20029;-86
2022/05/24 01:56:55;;;;;;;0.88;0.30;;;;;;;26.20;44.44;99071.88;5060020;28;20029;-86
2022/05/24 01:59:22;;;;;;;0.60;0.30;;;;;;;26.20;44.26;99071.88;5042878;28;20133;-86
2022/05/24 02:01:50;;;;;;;1.60;0.52;;;;;;;26.21;44.55;99073.59;5079464;28;20542;-86
2022/05/24 02:04:17;;;;;;;0.77;0.30;;;;;;;26.21;44.62;99070.91;5064242;28;20032;-87
2022/05/24 02:06:43;;;;;;;1.15;0.50;;;;;;;26.22;44.36;99077.09;5064828;28;20032;-88
2022/05/24 02:09:09;;;;;;;2.63;0.80;;;;;;;26.20;44.61;99077.22;5082336;28;20031;-85
2022/05/24 02:11:36;;;;;;;1.27;0.30;;;;;;;26.19;44.25;99070.19;5062327;28;20469;-84
2022/05/24 02:14:05;;;;;;;0.98;0.38;;;;;;;26.18;44.29;99063.16;5077458;28;20099;-85
2022/05/24 02:16:34;;;;;;;1.15;0.40;;;;;;;26.17;44.37;99066.81;5059975;28;20036;-83
2022/05/24 02:19:01;;;;;;;1.88;0.55;;;;;;;26.16;44.45;99065.13;5059734;28;20033;-84
2022/05/24 02:21:27;;;;;;;1.02;0.47;;;;;;;26.15;44.33;99063.44;5060163;28;20460;-86
2022/05/24 02:23:52;;;;;;;0.80;0.35;;;;;;;26.14;44.37;99056.38;5062782;28;20119;-85
2022/05/24 02:26:21;;;;;;;1.73;0.50;;;;;;;26.14;44.39;99072.44;5078785;28;20037;-86
2022/05/24 02:28:52;;;;;;;1.40;0.52;;;;;;;26.13;44.71;99062.72;5059188;28;20047;-85
2022/05/24 02:31:19;;;;;;;2.08;0.60;;;;;;;26.11;44.52;99068.19;5058968;28;20381;-84
2022/05/24 02:33:46;;;;;;;1.20;0.40;;;;;;;26.09;44.46;99066.63;5077656;28;20036;-83
2022/05/24 02:36:13;;;;;;;0.90;0.32;;;;;;;26.11;44.67;99067.38;5063131;28;20024;-85
2022/05/24 02:39:07;;;;;;;2.28;0.57;;;;;;;26.10;44.57;99071.03;5058598;28;20467;-84
2022/05/24 02:41:36;;;;;;;1.42;0.50;;;;;;;26.08;44.68;99072.97;5058546;28;20131;-84
2022/05/24 02:44:30;;;;;;;1.63;0.50;;;;;;;26.07;44.69;99071.28;5058932;28;20029;-83
2022/05/24 02:46:55;;;;;;;1.23;0.45;;;;;;;26.08;44.57;99072.97;5059080;28;20036;-83
2022/05/24 02:49:21;;;;;;;1.40;0.40;;;;;;;26.06;44.45;99069.59;5058563;28;20025;-85
2022/05/24 02:51:47;;;;;;;0.88;0.45;;;;;;;26.05;44.70;99073.25;5058488;28;20094;-83
2022/05/24 02:54:12;;;;;;;1.02;0.47;;;;;;;26.02;44.71;99066.34;5058429;28;20024;-85
2022/05/24 02:56:38;;;;;;;2.15;0.40;;;;;;;26.01;44.66;99073.53;5060309;28;20522;-85
2022/05/24 02:59:04;;;;;;;1.30;0.55;;;;;;;26.01;44.53;99073.53;5077573;28;20029;-83
2022/05/24 03:01:30;;;;;;;1.38;0.40;;;;;;;26.01;44.54;99078.88;5062242;28;20048;-83
2022/05/24 03:03:57;;;;;;;1.77;0.40;;;;;;;26.01;44.52;99073.53;5061843;28;20028;-85
2022/05/24 03:06:24;;;;;;;1.23;0.40;;;;;;;26.03;44.40;99075.22;5079322;28;20052;-84
2022/05/24 03:14:21;;;;;;;0.80;0.30;;;;;;;25.98;44.60;99068.47;5077046;28;20062;-86
2022/05/24 03:17:29;;;;;;;1.73;0.40;;;;;;;25.97;44.54;99069.44;5058972;28;20029;-85
2022/05/24 03:19:55;;;;;;;2.22;0.50;;;;;;;25.98;44.39;99067.59;5058762;28;20174;-84
2022/05/24 03:22:21;;;;;;;1.27;0.43;;;;;;;25.97;44.45;99061.44;5058927;28;20461;-85
2022/05/24 03:24:47;;;;;;;1.15;0.43;;;;;;;25.96;44.51;99059.72;5058287;28;20052;-84
2022/05/24 03:27:13;;;;;;;1.23;0.40;;;;;;;25.97;44.66;99049.88;5058281;28;20035;-84
2022/05/24 03:29:43;;;;;;;2.42;0.65;;;;;;;25.95;44.79;99060.69;5058904;28;20039;-85
2022/05/24 03:32:10;;;;;;;0.85;0.47;;;;;;;25.93;44.62;99051.97;5058570;28;20032;-86
2022/05/24 03:34:36;;;;;;;2.30;0.82;;;;;;;25.94;44.84;99052.81;5058121;28;20115;-86
2022/05/24 03:37:02;;;;;;;1.38;0.50;;;;;;;25.92;44.73;99050.31;5059280;28;20029;-86
2022/05/24 03:39:28;;;;;;;1.65;0.50;;;;;;;25.92;44.71;99046.75;5060295;28;20039;-85
2022/05/24 03:41:54;;;;;;;1.10;0.47;;;;;;;25.90;44.64;99044.22;5058357;28;20131;-83
2022/05/24 03:44:20;;;;;;;1.23;0.47;;;;;;;25.90;44.29;99044.22;5075754;28;20024;-84
2022/05/24 03:46:46;;;;;;;0.82;0.40;;;;;;;25.89;44.58;99047.88;5058193;28;20343;-82
2022/05/24 03:49:14;;;;;;;2.17;0.32;;;;;;;25.87;44.66;99049.84;5058006;28;20028;-86
2022/05/24 03:51:40;;;;;;;1.27;0.50;;;;;;;25.87;44.68;99044.50;5075377;28;20446;-85
2022/05/24 03:54:06;;;;;;;2.03;0.50;;;;;;;25.86;44.51;99043.66;5057363;28;20035;-85
2022/05/24 03:56:33;;;;;;;0.98;0.40;;;;;;;25.86;44.73;99042.81;5057667;28;20024;-85
2022/05/24 03:58:59;;;;;;;1.80;0.57;;;;;;;25.85;44.82;99044.63;5057583;28;20031;-87
2022/05/24 04:01:24;;;;;;;2.13;0.50;;;;;;;25.85;44.64;99041.09;5057710;28;20048;-85
2022/05/24 04:03:50;;;;;;;1.58;0.60;;;;;;;25.85;44.43;99041.09;5057698;28;20513;-83
2022/05/24 04:06:15;;;;;;;2.67;0.60;;;;;;;25.83;44.47;99048.44;5075447;28;20040;-85
2022/05/24 04:08:41;;;;;;;1.17;0.40;;;;;;;25.83;44.64;99043.09;5076216;28;20035;-86
2022/05/24 04:11:09;;;;;;;0.90;0.28;;;;;;;25.82;44.60;99046.75;5060140;28;20416;-86
2022/05/24 04:13:37;;;;;;;1.90;0.60;;;;;;;25.79;44.52;99037.16;5057467;28;20127;-86
2022/05/24 04:16:27;;;;;;;1.30;0.50;;;;;;;25.81;44.46;99043.22;5076565;28;20052;-85
2022/05/24 04:18:53;;;;;;;1.63;0.55;;;;;;;25.80;44.76;99043.38;5060171;28;20020;-86
2022/05/24 04:21:18;;;;;;;0.95;0.40;;;;;;;25.79;44.78;99037.16;5077498;28;20065;-86
2022/05/24 04:23:44;;;;;;;1.75;0.50;;;;;;;25.79;44.63;99036.31;5078650;28;20088;-86
2022/05/24 04:26:09;;;;;;;1.83;0.55;;;;;;;25.79;44.74;99049.66;5062699;28;20028;-87
2022/05/24 04:28:35;;;;;;;1.05;0.30;;;;;;;25.77;44.74;99049.81;5062862;28;20460;-87
2022/05/24 04:31:01;;;;;;;1.90;0.50;;;;;;;25.75;44.62;99041.06;5065069;28;20028;-86
2022/05/24 04:33:26;;;;;;;1.60;0.40;;;;;;;25.78;44.64;99045.31;5062302;28;20091;-84
2022/05/24 04:35:52;;;;;;;0.70;0.35;;;;;;;25.75;44.55;99046.44;5057134;28;20032;-85
2022/05/24 04:38:18;;;;;;;1.40;0.60;;;;;;;25.74;44.54;99042.94;5057301;28;20024;-85
2022/05/24 04:43:28;;;;;;;1.33;0.47;;;;;;;25.73;44.63;99057.25;5079230;28;20488;-84
2022/05/24 04:45:55;;;;;;;1.58;0.50;;;;;;;25.74;44.72;99040.25;5061675;28;20029;-86
2022/05/24 04:48:21;;;;;;;1.55;0.60;;;;;;;25.72;44.65;99052.06;5057826;28;20374;-86
2022/05/24 04:50:54;;;;;;;1.27;0.43;;;;;;;25.74;44.39;99055.44;5075583;28;20524;-86
2022/05/24 04:53:21;;;;;;;1.58;0.50;;;;;;;25.74;44.60;99058.09;5077395;28;20029;-85
2022/05/24 04:55:49;;;;;;;1.38;0.65;;;;;;;25.73;44.77;99059.09;5076681;28;20039;-82
2022/05/24 04:58:16;;;;;;;1.50;0.60;;;;;;;25.72;44.65;99054.72;5059116;28;20040;-83
2022/05/24 05:00:42;;;;;;;1.10;0.40;;;;;;;25.72;44.38;99055.56;5077917;28;20481;-83
2022/05/24 05:03:13;;;;;;;1.73;0.40;;;;;;;25.70;44.58;99054.84;5095990;28;20020;-85
2022/05/24 05:05:39;;;;;;;0.80;0.40;;;;;;;25.69;44.31;99058.50;5099193;28;20024;-84
2022/05/24 05:08:09;;;;;;;0.98;0.30;;;;;;;25.67;44.72;99065.78;5083634;28;20034;-83
2022/05/24 05:10:36;;;;;;;0.98;0.40;;;;;;;25.67;44.48;99062.28;5084388;28;20023;-82
2022/05/24 05:13:03;;;;;;;1.52;0.50;;;;;;;25.66;44.57;99063.28;5083794;28;20039;-83
2022/05/24 05:15:29;;;;;;;1.35;0.47;;;;;;;25.65;44.66;99062.41;5083367;28;20020;-84
2022/05/24 05:18:05;;;;;;;1.23;0.43;;;;;;;25.66;44.70;99064.09;5081523;28;20045;-82
2022/05/24 05:20:33;;;;;;;1.48;0.50;;;;;;;25.64;44.61;99060.75;5081020;28;20089;-82
2022/05/24 05:23:01;;;;;;;0.60;0.32;;;;;;;25.62;44.49;99052.03;5080791;28;20106;-85
2022/05/24 05:25:27;;;;;;;1.30;0.50;;;;;;;25.62;44.69;99062.72;5099735;28;20055;-84
2022/05/24 05:27:52;;;;;;;0.85;0.43;;;;;;;25.63;44.60;99058.19;5081086;28;20032;-84
2022/05/24 05:33:02;;;;;;;0.88;0.40;;;;;;;25.60;44.52;99049.47;5100830;28;20038;-84
2022/05/24 05:35:28;;;;;;;2.20;0.60;;;;;;;25.61;44.87;99061.00;5081951;28;20020;-85
2022/05/24 05:37:54;;;;;;;0.88;0.50;;;;;;;25.61;44.58;99055.66;5081207;28;20035;-86
2022/05/24 05:40:19;;;;;;;1.75;0.60;;;;;;;25.59;44.61;99042.44;5080553;28;20016;-84
2022/05/24 05:42:45;;;;;;;1.00;0.38;;;;;;;25.58;44.70;99054.09;5098475;28;20056;-85
2022/05/24 05:45:12;;;;;;;2.67;0.63;;;;;;;25.59;44.74;99053.13;5088619;28;20555;-83
2022/05/24 05:47:38;;;;;;;1.50;0.40;;;;;;;25.59;44.52;99053.13;5079906;28;20069;-82
2022/05/24 05:50:04;;;;;;;0.75;0.35;;;;;;;25.58;44.57;99056.75;5080099;28;20365;-81
2022/05/24 05:52:30;;;;;;;2.35;0.50;;;;;;;25.57;44.71;99059.59;5058649;28;20033;-81
2022/05/24 05:54:56;;;;;;;2.03;0.60;;;;;;;25.57;44.68;99056.91;5048223;28;20480;-83
2022/05/24 05:57:21;;;;;;;0.65;0.30;;;;;;;25.58;44.64;99047.91;5058075;28;20024;-82
2022/05/24 05:59:47;;;;;;;1.10;0.40;;;;;;;25.58;44.58;99046.06;5039866;28;20059;-82
2022/05/24 06:02:12;;;;;;;1.45;0.40;;;;;;;25.57;44.50;99049.72;5059386;28;20039;-83
2022/05/24 06:04:38;;;;;;;2.35;0.50;;;;;;;25.57;44.47;99044.38;5076795;28;20179;-83
2022/05/24 06:07:04;;;;;;;1.75;0.63;;;;;;;25.58;44.57;99050.59;5061215;28;20052;-84
2022/05/24 06:09:30;;;;;;;0.82;0.38;;;;;;;25.57;44.60;99054.25;5077813;28;20100;-82
2022/05/24 06:11:55;;;;;;;2.08;0.40;;;;;;;25.55;44.64;99053.50;5059811;28;20124;-87
2022/05/24 06:14:21;;;;;;;1.23;0.43;;;;;;;25.56;44.63;99060.56;5059950;28;20369;-83
2022/05/24 06:16:47;;;;;;;2.10;0.43;;;;;;;25.57;44.52;99070.28;5054871;28;20029;-83
2022/05/24 06:19:12;;;;;;;1.00;0.40;;;;;;;25.55;44.73;99056.19;5067201;28;20372;-85
2022/05/24 06:21:38;;;;;;;1.63;0.60;;;;;;;25.56;44.53;99055.22;5055421;28;20091;-82
2022/05/24 06:24:05;;;;;;;1.25;0.30;;;;;;;25.53;44.72;99051.00;5049888;28;20029;-82
2022/05/24 06:26:32;;;;;;;0.93;0.35;;;;;;;25.52;44.66;99051.91;5060302;28;20036;-81
2022/05/24 06:28:58;;;;;;;0.82;0.40;;;;;;;25.52;44.77;99062.59;5059368;28;20039;-82
2022/05/24 06:31:24;;;;;;;3.35;0.57;;;;;;;25.54;44.42;99057.16;5056797;28;20444;-83
2022/05/24 06:33:49;;;;;;;2.67;0.60;;;;;;;25.52;44.79;99053.75;5059533;28;20028;-84
2022/05/24 06:36:18;;;;;;;2.20;0.50;;;;;;;25.50;44.47;99053.03;5060571;28;20082;-83
2022/05/24 06:38:44;;;;;;;1.80;0.65;;;;;;;25.48;44.64;99051.34;5059364;28;20036;-83
2022/05/24 06:41:10;;;;;;;2.38;0.68;;;;;;;25.51;44.54;99055.56;5078946;28;20342;-84
2022/05/24 06:43:36;;;;;;;3.20;0.50;;;;;;;25.51;44.79;99054.75;5062625;28;20024;-85
2022/05/24 06:46:09;;;;;;;2.17;0.50;;;;;;;25.50;44.42;99048.53;5079963;28;20366;-86
2022/05/24 06:48:40;;;;;;;2.95;0.60;;;;;;;25.52;44.58;99053.75;5079531;28;20043;-86
2022/05/24 06:51:30;;;;;;;2.30;0.80;;;;;;;25.51;44.67;99052.06;5061506;28;20082;-84
2022/05/24 06:53:56;;;;;;;1.95;0.75;;;;;;;25.50;44.92;99045.88;5060591;28;20032;-84
2022/05/24 07:05:49;;;;;;;1.67;0.45;;;;;;;25.50;44.70;99059.22;5076174;28;20468;-85
2022/05/24 07:08:15;;;;;;;1.92;0.57;;;;;;;25.51;44.55;99055.56;5058616;28;20040;-83
2022/05/24 07:10:40;;;;;;;1.80;0.50;;;;;;;25.53;44.72;99058.13;5077792;28;20012;-83
2022/05/24 07:13:09;;;;;;;2.08;0.50;;;;;;;25.53;44.37;99052.78;5058571;28;20047;-83
2022/05/24 07:15:36;;;;;;;1.45;0.52;;;;;;;25.56;44.50;99057.91;5058561;28;20039;-83
2022/05/24 07:18:02;;;;;;;2.17;0.70;;;;;;;25.55;44.66;99056.19;5061255;28;20052;-84
2022/05/24 07:20:28;;;;;;;1.77;0.70;;;;;;;25.53;44.70;99055.44;5067285;28;20465;-83
2022/05/24 07:22:55;;;;;;;2.08;0.60;;;;;;;25.56;44.60;99057.91;5057900;28;20051;-84
2022/05/24 07:25:22;;;;;;;2.22;0.60;;;;;;;25.55;44.39;99056.19;5058204;28;20032;-84
2022/05/24 07:31:10;;;;;;;1.95;0.70;;;;;;;25.54;44.67;99059.84;5075346;28;20377;-84
2022/05/24 07:33:36;;;;;;;3.08;1.20;;;;;;;25.54;44.46;99055.34;5075659;28;20037;-81
2022/05/24 07:36:06;;;;;;;1.58;0.65;;;;;;;25.48;44.77;99054.00;5075964;28;20029;-82
2022/05/24 07:38:32;;;;;;;3.30;0.80;;;;;;;25.53;44.61;99063.47;5075714;28;20024;-84
2022/05/24 07:46:27;;;;;;;1.67;0.63;;;;;;;25.57;44.64;99043.56;5076108;28;20047;-83
2022/05/24 07:48:53;;;;;;;1.20;0.47;;;;;;;25.58;44.49;99050.59;5058516;28;20020;-82
2022/05/24 07:51:19;;;;;;;2.45;0.70;;;;;;;25.59;44.50;99052.28;5076541;28;20047;-83
2022/05/24 07:53:44;;;;;;;2.17;0.75;;;;;;;25.55;44.80;99051.69;5061172;28;20028;-83
2022/05/24 07:56:10;;;;;;;1.23;0.50;;;;;;;25.56;44.56;99053.38;5060783;28;20125;-83
2022/05/24 07:58:36;;;;;;;1.65;0.60;;;;;;;25.53;44.60;99055.44;5077926;28;20032;-85
2022/05/24 08:01:02;;;;;;;2.10;0.70;;;;;;;25.56;44.38;99052.56;5061059;28;20086;-82
2022/05/24 08:03:29;;;;;;;1.83;0.47;;;;;;;25.51;44.37;99062.75;5060293;28;20039;-81
2022/05/24 08:05:55;;;;;;;2.45;0.68;;;;;;;25.53;44.43;99058.13;5057645;28;20104;-81
2022/05/24 08:08:22;;;;;;;2.17;0.65;;;;;;;25.54;44.71;99057.16;5074940;28;20036;-82
2022/05/24 08:10:48;;;;;;;2.60;0.63;;;;;;;25.51;44.51;99060.91;5057583;28;20035;-83
2022/05/24 08:13:16;;;;;;;2.08;0.60;;;;;;;25.54;44.70;99059.84;5075095;28;20025;-81
2022/05/24 08:15:42;;;;;;;1.90;0.60;;;;;;;25.52;44.35;99073.28;5058548;28;20020;-83
2022/05/24 08:18:09;;;;;;;1.67;0.50;;;;;;;25.53;44.52;99064.34;5077912;28;20028;-83
2022/05/24 08:20:38;;;;;;;1.27;0.50;;;;;;;25.53;44.33;99080.38;5059584;28;20032;-83
2022/05/24 08:23:04;;;;;;;2.60;0.70;;;;;;;25.52;44.49;99083.16;5059257;28;20488;-82
2022/05/24 08:25:30;;;;;;;2.15;0.60;;;;;;;25.51;44.65;99071.59;5058893;28;20029;-82
2022/05/24 08:27:58;;;;;;;1.25;0.50;;;;;;;25.52;44.34;99053.75;5075785;28;20419;-84
2022/05/24 08:30:24;;;;;;;2.88;0.68;;;;;;;25.51;44.35;99044.88;5057635;28;20036;-84
2022/05/24 08:32:50;;;;;;;2.25;0.93;;;;;;;25.50;44.55;99048.53;5058827;28;20038;-83
2022/05/24 08:38:38;;;;;;;1.88;0.60;;;;;;;25.52;44.47;99048.41;5074957;28;20079;-82
2022/05/24 08:41:10;;;;;;;2.70;0.75;;;;;;;25.51;44.61;99058.25;5078631;28;20107;-82
2022/05/24 08:48:22;;;;;;;1.30;0.63;;;;;;;25.50;44.43;99058.38;5061051;28;20055;-81
2022/05/24 08:49:33;;;;;;;1.40;0.50;;;;;;;25.55;44.28;99066.88;5079343;28;20039;-82
2022/05/24 08:52:02;;;;;;;0.63;0.30;;;;;;;25.51;44.68;99068.09;5062821;28;20028;-81
2022/05/24 08:54:38;;;;;;;2.47;0.60;;;;;;;25.53;44.53;99074.16;5086503;28;20039;-83
2022/05/24 08:57:08;;;;;;;1.40;0.30;;;;;;;25.52;44.49;99067.94;5060660;28;20031;-84
2022/05/24 08:59:37;;;;;;;3.53;0.60;;;;;;;25.53;44.47;99063.47;5078801;28;20024;-83
2022/05/24 09:02:05;;;;;;;3.60;0.70;;;;;;;25.56;44.39;99063.25;5062008;28;20473;-81
2022/05/24 09:04:31;;;;;;;1.55;0.50;;;;;;;25.53;44.23;99061.69;5081071;28;20024;-83
2022/05/24 09:07:00;;;;;;;1.88;0.43;;;;;;;25.55;44.30;99061.53;5065567;28;20055;-84
2022/05/24 09:09:57;;;;;;;3.03;0.50;;;;;;;25.52;44.08;99067.94;5084107;28;20039;-85
2022/05/24 09:12:25;;;;;;;1.55;0.70;;;;;;;25.55;44.14;99067.72;5084355;28;20024;-84
2022/05/24 09:15:14;;;;;;;1.00;0.45;;;;;;;25.56;44.29;99068.59;5086304;28;20052;-83
2022/05/24 09:18:04;;;;;;;2.38;0.65;;;;;;;25.57;44.12;99054.25;5081436;28;20342;-83
2022/05/24 09:20:43;;;;;;;2.65;0.68;;;;;;;25.56;44.41;99060.56;5078349;28;20454;-81
2022/05/24 09:23:28;;;;;;;2.03;0.60;;;;;;;25.54;44.18;99062.50;5061004;28;20051;-82
2022/05/24 09:26:00;;;;;;;2.33;0.60;;;;;;;25.54;43.98;99070.53;5060439;28;20037;-83
2022/05/24 09:28:50;;;;;;;2.17;0.80;;;;;;;25.53;44.29;99059.00;5060172;28;20119;-82
2022/05/24 09:31:31;;;;;;;1.63;0.52;;;;;;;25.53;44.22;99050.09;5060517;28;20028;-83
2022/05/24 09:34:24;;;;;;;1.23;0.50;;;;;;;25.54;44.16;99049.16;5078391;28;20028;-81
2022/05/24 09:37:03;;;;;;;1.83;0.50;;;;;;;25.54;44.37;99054.50;5060083;28;20020;-82
2022/05/24 09:39:35;;;;;;;2.00;0.68;;;;;;;25.53;44.44;99056.34;5059883;28;20060;-83
2022/05/24 09:42:13;;;;;;;3.47;0.60;;;;;;;25.55;44.26;99066.88;5077742;28;20028;-83
2022/05/24 09:45:10;;;;;;;1.83;0.40;;;;;;;25.56;44.23;99068.59;5077731;28;20032;-82
2022/05/24 09:47:41;;;;;;;0.98;0.52;;;;;;;25.57;44.04;99062.25;5056577;28;20034;-83
2022/05/24 09:50:30;;;;;;;2.28;0.47;;;;;;;25.54;44.17;99059.84;5060339;28;20097;-83
2022/05/24 09:53:22;;;;;;;1.25;0.68;;;;;;;25.57;44.12;99064.94;5059411;28;20524;-81
2022/05/24 09:56:00;;;;;;;1.40;0.60;;;;;;;25.56;44.35;99064.06;5059859;28;20123;-82
2022/05/24 09:58:27;;;;;;;1.38;0.40;;;;;;;25.57;44.06;99057.75;5059995;28;20029;-82
2022/05/24 10:01:01;;;;;;;0.85;0.43;;;;;;;25.57;44.04;99059.59;5079001;28;20044;-83
2022/05/24 10:03:34;;;;;;;2.25;0.52;;;;;;;25.58;44.28;99061.28;5060951;28;20032;-81
2022/05/24 10:06:08;;;;;;;1.35;0.50;;;;;;;25.58;44.25;99055.94;5061646;28;20480;-82
2022/05/24 10:08:46;;;;;;;1.15;0.55;;;;;;;25.56;44.36;99060.56;5078736;28;20104;-82
2022/05/24 10:11:27;;;;;;;2.08;0.60;;;;;;;25.56;44.40;99060.56;5060165;28;20032;-83
2022/05/24 10:14:10;;;;;;;1.48;0.60;;;;;;;25.56;44.20;99068.59;5059865;28;20108;-82
2022/05/24 10:16:57;;;;;;;1.55;0.50;;;;;;;25.56;44.17;99073.94;5077979;28;20063;-83
2022/05/24 10:19:45;;;;;;;2.78;0.50;;;;;;;25.56;44.17;99069.41;5059759;28;20354;-83
2022/05/24 10:22:50;;;;;;;2.15;0.47;;;;;;;25.56;44.19;99068.59;5060413;28;20032;-83
2022/05/24 10:25:26;;;;;;;2.78;0.68;;;;;;;25.57;43.95;99057.75;5079009;28;20029;-83
2022/05/24 10:27:59;;;;;;;1.70;0.45;;;;;;;25.56;44.22;99076.59;5085494;28;20404;-81
2022/05/24 10:30:31;;;;;;;1.60;0.50;;;;;;;25.56;44.07;99069.41;5076680;28;20043;-83
2022/05/24 10:39:05;;;;;;;1.67;0.50;;;;;;;25.56;44.04;99071.25;5078862;28;20127;-83
2022/05/24 10:41:46;;;;;;;1.75;0.40;;;;;;;25.55;44.25;99070.41;5079567;28;20082;-83
2022/05/24 10:44:24;;;;;;;1.50;0.45;;;;;;;25.56;43.91;99074.75;5061989;28;20028;-84
2022/05/24 10:47:03;;;;;;;1.20;0.40;;;;;;;25.55;43.94;99062.38;5062442;28;20051;-84
2022/05/24 10:49:33;;;;;;;1.95;0.50;;;;;;;25.55;44.03;99053.50;5063297;28;20038;-83
2022/05/24 10:52:17;;;;;;;1.35;0.40;;;;;;;25.54;44.16;99046.47;5063778;28;20451;-84
2022/05/24 10:55:01;;;;;;;0.95;0.40;;;;;;;25.56;44.00;99047.22;5061029;28;20028;-81
2022/05/24 10:58:11;;;;;;;2.90;0.65;;;;;;;25.56;44.02;99041.88;5076950;28;20369;-84
2022/05/24 11:00:36;;;;;;;1.05;0.40;;;;;;;25.56;44.09;99031.19;5060722;28;20052;-81
2022/05/24 11:03:02;;;;;;;1.55;0.60;;;;;;;25.55;44.01;99021.47;5059321;28;20460;-83
2022/05/24 11:05:42;;;;;;;1.35;0.43;;;;;;;25.55;44.21;99026.81;5077071;28;20036;-83
2022/05/24 11:08:29;;;;;;;2.28;0.57;;;;;;;25.57;43.97;99028.34;5059458;28;20025;-83
2022/05/24 11:10:56;;;;;;;;;;;;;;;25.57;43.97;99038.22;5078094;28;20319;-83
2022/05/24 11:13:25;;;;;;;;;;;;;;;25.56;44.00;99025.84;5077290;28;19952;-83
2022/05/24 11:16:03;;;;;;;1.73;0.50;;;;;;;25.56;44.07;99031.19;5059163;28;19995;-83
2022/05/24 11:18:28;;;;;;;1.40;0.50;;;;;;;25.55;44.07;99029.47;5059179;28;20036;-83
2022/05/24 11:21:02;;;;;;;1.33;0.43;;;;;;;25.56;44.02;99032.00;5077460;28;20119;-83
2022/05/24 11:23:35;;;;;;;2.55;0.45;;;;;;;25.56;44.19;99033.84;5078401;28;20409;-81
2022/05/24 11:26:27;;;;;;;2.08;0.40;;;;;;;25.57;44.16;99038.22;5078548;28;20404;-83
2022/05/24 11:28:58;;;;;;;1.10;0.40;;;;;;;25.54;44.18;99044.66;5061927;28;20365;-83
2022/05/24 11:31:47;;;;;;;1.55;0.60;;;;;;;25.56;44.10;99047.22;5062712;28;20031;-83
2022/05/24 11:34:23;;;;;;;1.88;0.75;;;;;;;25.55;44.04;99029.47;5081086;28;20353;-84
2022/05/24 11:37:00;;;;;;;;;;;;;;;25.56;44.04;99026.66;5064212;28;20028;-82
2022/05/24 11:39:29;;;;;;;1.38;0.55;;;;;;;25.56;43.82;99032.00;5080518;28;20337;-82
2022/05/24 11:42:20;;;;;;;2.83;1.10;;;;;;;25.55;44.04;99030.31;5058598;28;20484;-82
2022/05/24 11:44:46;;;;;;;2.22;0.57;;;;;;;25.57;44.19;99032.88;5060485;28;20062;-82
2022/05/24 11:47:39;;;;;;;0.95;0.40;;;;;;;25.58;43.87;99023.88;5059690;28;20040;-83
2022/05/24 11:50:30;;;;;;;1.30;0.50;;;;;;;25.58;43.94;99023.88;5060586;28;20070;-83
2022/05/24 11:53:17;;;;;;;1.73;0.60;;;;;;;25.57;44.03;99012.31;5076736;28;20071;-83
2022/05/24 11:55:51;;;;;;;2.60;0.75;;;;;;;25.59;44.24;99014.88;5059546;28;20484;-83
2022/05/24 11:58:20;;;;;;;1.73;0.57;;;;;;;25.58;43.88;99002.50;5058903;28;20047;-83
2022/05/24 12:01:01;;;;;;;1.67;0.45;;;;;;;25.60;43.90;99011.22;5085563;28;20424;-83
2022/05/24 12:09:21;;;;;;;2.20;0.52;;;;;;;25.61;44.01;99007.56;5075129;28;20089;-83
2022/05/24 12:11:48;;;;;;;2.22;0.60;;;;;;;25.62;43.95;98998.59;5055992;28;20040;-83
2022/05/24 12:14:18;;;;;;;1.50;0.40;;;;;;;25.62;43.94;99003.06;5065871;28;20134;-83
2022/05/24 12:17:06;;;;;;;1.27;0.50;;;;;;;25.64;43.81;99012.66;5067680;28;20138;-83
2022/05/24 12:19:35;;;;;;;1.67;0.57;;;;;;;25.65;43.75;99013.50;5075736;28;20055;-84
2022/05/24 12:22:14;;;;;;;0.98;0.40;;;;;;;25.64;43.97;99007.31;5074216;28;20028;-84
2022/05/24 12:24:40;;;;;;;1.80;0.50;;;;;;;25.64;43.83;99007.31;5054150;28;20104;-84
2022/05/24 12:27:08;;;;;;;2.45;0.50;;;;;;;25.65;43.77;99010.84;5046531;28;20052;-81
2022/05/24 12:29:35;;;;;;;1.75;0.60;;;;;;;25.65;43.91;99011.66;5057630;28;20084;-82
2022/05/24 12:32:05;;;;;;;1.08;0.40;;;;;;;25.65;43.60;99003.66;5062878;28;20035;-83
2022/05/24 12:34:32;;;;;;;1.92;0.50;;;;;;;25.67;43.80;99004.34;5094982;28;20104;-83
2022/05/24 12:37:00;;;;;;;1.50;0.40;;;;;;;25.67;43.96;98996.31;5077752;28;20062;-83
2022/05/24 12:39:26;;;;;;;1.23;0.50;;;;;;;25.68;43.67;98999.84;5074167;28;20029;-83
2022/05/24 12:42:09;;;;;;;2.67;0.60;;;;;;;25.68;43.76;98998.03;5073653;28;20047;-83
2022/05/24 12:44:58;;;;;;;1.40;0.43;;;;;;;25.68;43.81;98995.38;5050558;28;20032;-83
2022/05/24 12:47:25;;;;;;;2.20;0.60;;;;;;;25.68;43.90;98992.69;5073686;28;20477;-83
2022/05/24 12:49:50;;;;;;;1.27;0.32;;;;;;;25.68;43.59;99000.72;5063937;28;20025;-81